x

Western Gulf Of Alaska - 175nm Se Of Kodiak, Ak (46001) Wave Buoy

7:50pm - Tue 3rd May 2016 All times are AKDT. -8 hours from GMT.

  • Sig Wave height 5.2ft
  • Peak Period 7s
  • Average Period 5s
  • Wind
    20mph, 25mph gusts
  • Sea Temp 45°f
  • Air Temp 42°f
  • Sea Pressure 1010.7mb
  • Western Gulf Of Alaska  - 175nm Se Of Kodiak, Ak
  • Western Gulf Of Alaska  - 175nm Se Of Kodiak, Ak

More Historic Weather Station data

Upgrade to MSW Pro to gain access to the past 30 days of data for over 8000 Wavebouys and Weather Stations around the globe.

Join Pro

Comparision Forecast

View Surf forecast
   
Tue 05/03 7:50pm 5ft 7s 5s 20 25 mph 1010.7mb 45f 42f
6:50pm 5ft 7s 5s 18 22 mph 1011.2mb 45f 43f
5:50pm 4.5ft 7s 5s 16 20 mph 1011.8mb 45f 43f
4:50pm 4.5ft 8s 5s 16 18 mph 1012mb 45f 43f
3:50pm 4.5ft 6s 4s 16 18 mph 1012.3mb 45f 43f
2:50pm 4.5ft 8s 5s 13 16 mph 1012.3mb 45f 43f
1:50pm 4.5ft 8s 5s 11 13 mph 1012mb 45f 43f
12:50pm 5ft 8s 5s 11 16 mph 1012.1mb 45f 43f
11:50am 5ft 5s 5s 11 16 mph 1011.8mb 44f 42f
10:50am 5ft 7s 5s 18 22 mph 1011.3mb 44f 42f
9:50am 6ft 8s 5s 13 16 mph 1011mb 44f 43f
8:50am 6ft 7s 5s 16 18 mph 1010.8mb 44f 43f
7:50am 6ft 7s 5s 16 18 mph 1010.5mb 44f 43f
6:50am 6.5ft 8s 5s 18 20 mph 1010.3mb 44f 43f
5:50am 7ft 8s 5s 20 22 mph 1010.2mb 44f 43f
4:50am 6.5ft 8s 5s 18 22 mph 1010.1mb 44f 43f
3:50am 5.5ft 8s 5s 18 20 mph 1009.9mb 44f 43f
2:50am 5.5ft 8s 5s 18 22 mph 1009.8mb 44f 44f
1:50am 5.5ft 9s 5s 18 22 mph 1009.6mb 44f 43f
12:50am 5.5ft 10s 5s 16 18 mph 1009.3mb 44f 44f
Mon 05/02 11:50pm 6ft 8s 6s 16 20 mph 1009.2mb 44f 44f
10:50pm 6.5ft 7s 5s 18 20 mph 1009.1mb 44f 44f
9:50pm 6.5ft 7s 6s 16 18 mph 1008.8mb 44f 44f
8:50pm 6.5ft 9s 5s 13 16 mph 1008.4mb 44f 43f
7:50pm 6ft 8s 5s 16 20 mph 1008.2mb 44f 44f
6:50pm 7ft 8s 6s 18 22 mph 1007.7mb 44f 44f
5:50pm 6.5ft 8s 5s 18 22 mph 1007.3mb 44f 44f
4:50pm 6ft 8s 5s 20 22 mph 1006.9mb 44f 44f
3:50pm 6ft 8s 5s 20 22 mph 1006.5mb 44f 44f
2:50pm 6ft 8s 5s 18 22 mph 1005.9mb 44f 44f
1:50pm 6ft 8s 6s 20 22 mph 1005.1mb 44f 44f
12:50pm 5ft 8s 5s 18 22 mph 1004.6mb 44f 44f
11:50am 6ft 8s 6s 18 20 mph 1003.9mb 44f 44f
10:50am 6ft 10s 6s 18 20 mph 1003.4mb 44f 44f
9:50am 6ft 8s 6s 13 18 mph 1003mb 44f 44f
8:50am 6.5ft 9s 6s 13 18 mph 1002.5mb 44f 44f
7:50am 7ft 8s 7s 11 13 mph 1002.1mb 44f 44f
6:50am 6.5ft 8s 6s 11 13 mph 1001.8mb 44f 43f
5:50am 7.5ft 10s 7s 11 13 mph 1001.6mb 44f 44f
4:50am 7ft 9s 7s 4 7 mph 1001.7mb 44f 43f
3:50am 7ft 8s 7s 11 18 mph 1001.8mb 44f 42f
2:50am 7ft 10s 7s 9 11 mph 1001.7mb 44f 43f
1:50am 7ft 10s 7s 9 11 mph 1001.5mb 44f 43f
12:50am 7.5ft 10s 7s 11 13 mph 1001.4mb 44f 43f
Sun 05/01 11:50pm 7.5ft 10s 6s 11 18 mph 1001.5mb 44f 43f
10:50pm 9ft 10s 7s 9 13 mph 1001.7mb 44f 43f
9:50pm 9ft 10s 7s 11 13 mph 1001.7mb 44f 42f
8:50pm 10ft 11s 7s 16 18 mph 1001.6mb 44f 43f
7:50pm 10ft 11s 7s 18 22 mph 1001.4mb 44f 43f
6:50pm 9.5ft 10s 7s 20 22 mph 1001.3mb 44f 44f
5:50pm 10.5ft 10s 7s 20 25 mph 1001.3mb 44f 44f
4:50pm 12ft 11s 7s 18 22 mph 1001.4mb 44f 44f
3:50pm 11ft 11s 7s 20 22 mph 1001.4mb 44f 44f
2:50pm 12ft 11s 8s 20 25 mph 1001.3mb 44f 44f
1:50pm 12ft 9s 7s 20 25 mph 1001.1mb 44f 44f
12:50pm 10ft 9s 7s 22 27 mph 1000.7mb 44f 44f
11:50am 12ft 10s 7s 22 27 mph 1000.1mb 44f 44f
10:50am 10ft 11s 7s 20 27 mph 999.3mb 44f 44f
9:50am 13ft 11s 8s 18 22 mph 998.8mb 44f 44f
8:50am 11.5ft 11s 7s 18 22 mph 998mb 44f 44f
7:50am 12.5ft 12s 7s 18 22 mph 997.3mb 44f 44f
6:50am 14.5ft 12s 8s 20 25 mph 996.9mb 44f 43f
5:50am 15ft 13s 8s 22 27 mph 996.7mb 44f 43f
4:50am 14ft 12s 8s 20 27 mph 996.5mb 44f 43f
3:50am 13.5ft 11s 8s 22 27 mph 996.4mb 44f 43f
2:50am 14ft 10s 8s 25 29 mph 996.1mb 44f 43f
1:50am 12ft 10s 8s 18 22 mph 995.9mb 44f 44f
12:50am 10ft 11s 7s 20 25 mph 995.2mb 44f 43f
Sat 04/30 11:50pm 11.5ft 11s 8s 18 22 mph 994.7mb 44f 43f
10:50pm 11ft 11s 8s 18 22 mph 994.6mb 44f 43f
9:50pm 10ft 10s 7s 16 18 mph 994.2mb 44f 44f
8:50pm 9.5ft 9s 7s 13 18 mph 993.6mb 44f 44f
7:50pm 10ft 9s 7s 13 16 mph 993mb 44f 44f
6:50pm 10.5ft 10s 7s 16 22 mph 992.2mb 44f 43f
5:50pm 10.5ft 9s 7s 13 16 mph 991.7mb 44f 44f
4:50pm 12.5ft 9s 7s 16 20 mph 991mb 44f 44f
3:50pm 9.5ft 9s 6s 16 20 mph 990.4mb 44f 44f
2:50pm 12ft 9s 7s 13 18 mph 989.5mb 44f 44f
1:50pm 10.5ft 9s 7s 18 20 mph 988.6mb 44f 44f
12:50pm 13ft 10s 7s 16 20 mph 987.9mb 44f 43f
11:50am 14ft 10s 8s 18 22 mph 987.3mb 44f 44f
10:50am 14ft 9s 8s 16 20 mph 986.9mb 44f 44f
9:50am 11ft 9s 7s 13 18 mph 986.8mb 44f 43f
8:50am 11.5ft 9s 7s 16 18 mph 986.8mb 44f 44f
7:50am 13ft 10s 7s 20 25 mph 986.7mb 44f 43f
6:50am 12ft 10s 7s 16 18 mph 987mb 44f 44f
5:50am 14ft 9s 7s 16 20 mph 987.5mb 44f 44f